Time;durP1;ratioP1;P1;durP2;ratioP2;P2;SDS_P1;SDS_P2;PMS_P1;PMS_P2;Temp;Humidity;BMP_temperature;BMP_pressure;BME280_temperature;BME280_humidity;BME280_pressure;Samples;Min_cycle;Max_cycle;Signal;HPM_P1;HPM_P2
2023/03/11 00:00:39;;;;;;;;;;;;;;;4.76;81.96;99282.94;5031028;28;19928;-69
2023/03/11 00:03:05;;;;;;;;;;;;;;;4.71;82.04;99296.19;5013777;28;19917;-68
2023/03/11 00:05:32;;;;;;;;;;;;;;;4.69;82.37;99292.72;5032253;28;19921;-68
2023/03/11 00:07:57;;;;;;;;;;;;;;;4.67;82.84;99284.00;5013418;28;20031;-68
2023/03/11 00:10:25;;;;;;;;;;;;;;;4.65;83.40;99291.06;5031859;28;19928;-68
2023/03/11 00:12:50;;;;;;;;;;;;;;;4.67;83.32;99278.72;5031610;28;19917;-68
2023/03/11 00:15:16;;;;;;;;;;;;;;;4.65;83.19;99272.63;5029697;28;19925;-68
2023/03/11 00:17:41;;;;;;;;;;;;;;;4.68;83.85;99259.38;5030172;28;20392;-68
2023/03/11 00:20:07;;;;;;;;;;;;;;;4.67;83.63;99255.03;5031027;28;19923;-68
2023/03/11 00:22:32;;;;;;;;;;;;;;;4.72;83.70;99263.69;5029969;28;20334;-68
2023/03/11 00:24:58;;;;;;;;;;;;;;;4.70;83.90;99273.38;5030853;28;19921;-68
2023/03/11 00:27:23;;;;;;;;;;;;;;;4.71;84.30;99269.84;5030949;28;19995;-68
2023/03/11 00:29:48;;;;;;;;;;;;;;;4.71;83.92;99269.84;5030487;28;20662;-68
2023/03/11 00:32:14;;;;;;;;;;;;;;;4.75;84.23;99282.06;5029754;28;20387;-68
2023/03/11 00:34:39;;;;;;;;;;;;;;;4.77;84.04;99285.53;5030461;28;19921;-68
2023/03/11 00:37:04;;;;;;;;;;;;;;;4.74;83.93;99290.88;5030545;28;19924;-68
2023/03/11 00:39:29;;;;;;;;;;;;;;;4.70;84.23;99289.19;5030835;28;20035;-68
2023/03/11 00:41:55;;;;;;;;;;;;;;;4.69;84.35;99284.84;5029919;28;19921;-68
2023/03/11 00:44:21;;;;;;;;;;;;;;;4.63;84.44;99281.47;5031264;28;19924;-67
2023/03/11 00:46:46;;;;;;;;;;;;;;;4.64;84.66;99286.69;5028491;28;20311;-68
2023/03/11 00:49:11;;;;;;;;;;;;;;;4.56;85.17;99272.81;5030971;28;19963;-68
2023/03/11 00:51:36;;;;;;;;;;;;;;;4.54;84.94;99276.38;5025955;28;20419;-68
2023/03/11 00:54:02;;;;;;;;;;;;;;;4.53;85.59;99286.03;5011051;28;19925;-68
2023/03/11 00:56:27;;;;;;;;;;;;;;;4.48;85.54;99287.03;5021909;28;19917;-68
2023/03/11 00:58:52;;;;;;;;;;;;;;;4.46;85.66;99292.34;5031269;28;20385;-68
2023/03/11 01:01:18;;;;;;;;;;;;;;;4.45;85.56;99295.84;5027732;28;20630;-68
2023/03/11 01:03:43;;;;;;;;;;;;;;;4.49;85.75;99284.38;5026234;28;19956;-68
2023/03/11 01:06:09;;;;;;;;;;;;;;;4.49;86.30;99294.91;5018086;28;20277;-68
2023/03/11 01:08:34;;;;;;;;;;;;;;;4.45;86.81;99298.47;5030553;28;19914;-68
2023/03/11 01:11:00;;;;;;;;;;;;;;;4.41;86.76;99307.34;5025879;28;20384;-68
2023/03/11 01:13:26;;;;;;;;;;;;;;;4.39;86.34;99314.41;5010471;28;19929;-68
2023/03/11 01:15:52;;;;;;;;;;;;;;;4.41;86.67;99333.69;5007997;28;20388;-68
2023/03/11 01:18:19;;;;;;;;;;;;;;;4.39;87.03;99335.47;4990406;28;19961;-68
2023/03/11 01:20:44;;;;;;;;;;;;;;;4.36;87.34;99335.53;4994110;28;20026;-67
2023/03/11 01:23:10;;;;;;;;;;;;;;;4.35;87.54;99325.88;5010701;28;19913;-68
2023/03/11 01:25:35;;;;;;;;;;;;;;;4.27;86.97;99327.78;5010361;28;19914;-67
2023/03/11 01:28:00;;;;;;;;;;;;;;;4.31;86.62;99333.88;5009899;28;20014;-68
2023/03/11 01:30:26;;;;;;;;;;;;;;;4.31;87.69;99325.97;5008960;28;20060;-68
2023/03/11 01:32:52;;;;;;;;;;;;;;;4.33;87.30;99313.66;5010186;28;19917;-68
2023/03/11 01:35:18;;;;;;;;;;;;;;;4.27;87.20;99309.34;5011010;28;20285;-68
2023/03/11 01:37:44;;;;;;;;;;;;;;;4.26;87.69;99310.25;5010659;28;19929;-68
2023/03/11 01:40:29;;;;;;;;;;;;;;;4.19;87.79;99321.78;5009855;28;19925;-68
2023/03/11 01:42:54;;;;;;;;;;;;;;;4.23;87.93;99320.84;5008127;28;20402;-68
2023/03/11 01:45:32;;;;;;;;;;;;;;;4.19;87.79;99316.53;5009905;28;19956;-67
2023/03/11 01:47:57;;;;;;;;;;;;;;;4.18;87.82;99311.31;5008702;28;20388;-68
2023/03/11 01:50:31;;;;;;;;;;;;;;;4.11;86.90;99328.97;5009629;28;20079;-68
2023/03/11 01:52:56;;;;;;;;;;;;;;;4.16;87.76;99327.13;5010160;28;19918;-68
2023/03/11 01:55:22;;;;;;;;;;;;;;;4.13;87.91;99324.56;5009820;28;19925;-68
2023/03/11 01:57:47;;;;;;;;;;;;;;;4.12;88.29;99320.16;5010286;28;19917;-68
2023/03/11 02:00:14;;;;;;;;;;;;;;;4.09;88.30;99325.50;5009381;28;20006;-67
2023/03/11 02:02:47;;;;;;;;;;;;;;;4.08;88.70;99342.19;5009715;28;20397;-67
2023/03/11 02:05:12;;;;;;;;;;;;;;;4.04;88.44;99338.72;5009341;28;20274;-67
2023/03/11 02:07:39;;;;;;;;;;;;;;;4.01;87.76;99335.28;5010296;28;19939;-67
2023/03/11 02:10:06;;;;;;;;;;;;;;;4.02;87.00;99323.84;5013797;28;19932;-67
2023/03/11 02:12:32;;;;;;;;;;;;;;;3.98;85.88;99322.19;5029775;28;19917;-67
2023/03/11 02:14:59;;;;;;;;;;;;;;;3.97;85.50;99323.94;5029867;28;19924;-67
2023/03/11 02:17:25;;;;;;;;;;;;;;;3.93;84.98;99334.56;5028497;28;19924;-67
2023/03/11 02:19:50;;;;;;;;;;;;;;;3.92;84.23;99324.94;5028851;28;19921;-67
2023/03/11 02:22:15;;;;;;;;;;;;;;;3.95;83.87;99322.25;5029143;28;19913;-66
2023/03/11 02:24:58;;;;;;;;;;;;;;;4.03;83.65;99328.22;5028629;28;19999;-66
2023/03/11 02:27:25;;;;;;;;;;;;;;;4.01;83.06;99312.47;5011213;28;19921;-66
2023/03/11 02:29:52;;;;;;;;;;;;;;;3.84;83.63;99313.66;5028749;28;20011;-66
2023/03/11 02:32:18;;;;;;;;;;;;;;;3.75;84.60;99313.81;5028591;28;20388;-66
2023/03/11 02:34:44;;;;;;;;;;;;;;;3.67;85.45;99306.03;5029232;28;19968;-66
2023/03/11 02:37:10;;;;;;;;;;;;;;;3.65;85.31;99317.50;5028802;28;19925;-66
2023/03/11 02:39:37;;;;;;;;;;;;;;;3.61;86.00;99342.06;5028316;28;19921;-66
2023/03/11 02:42:07;;;;;;;;;;;;;;;3.57;86.37;99343.91;5013618;28;20660;-67
2023/03/11 02:44:33;;;;;;;;;;;;;;;3.50;86.90;99341.38;5033283;28;20729;-67
2023/03/11 02:46:59;;;;;;;;;;;;;;;3.42;86.90;99349.41;5033443;28;19913;-67
2023/03/11 02:49:24;;;;;;;;;;;;;;;3.37;87.19;99347.72;5032881;28;19921;-67
2023/03/11 02:51:51;;;;;;;;;;;;;;;3.46;87.46;99329.19;5031765;28;19974;-67
2023/03/11 02:54:16;;;;;;;;;;;;;;;3.53;87.54;99330.81;5016270;28;19921;-67
2023/03/11 02:56:42;;;;;;;;;;;;;;;3.48;87.81;99327.38;5033007;28;19917;-67
2023/03/11 02:59:07;;;;;;;;;;;;;;;3.45;86.98;99324.81;5033282;28;19924;-67
2023/03/11 03:01:32;;;;;;;;;;;;;;;3.41;87.25;99310.00;5033525;28;19917;-67
2023/03/11 03:03:58;;;;;;;;;;;;;;;3.41;87.21;99307.38;5032680;28;20346;-67
2023/03/11 03:06:23;;;;;;;;;;;;;;;3.36;87.68;99309.19;5033065;28;19951;-66
2023/03/11 03:08:49;;;;;;;;;;;;;;;3.29;88.27;99303.16;5033152;28;20404;-67
2023/03/11 03:11:14;;;;;;;;;;;;;;;3.19;88.24;99306.81;5021427;28;20413;-66
2023/03/11 03:13:39;;;;;;;;;;;;;;;3.13;88.66;99306.88;5013083;28;19917;-67
2023/03/11 03:16:05;;;;;;;;;;;;;;;3.09;88.78;99306.97;5027845;28;20054;-66
2023/03/11 03:18:30;;;;;;;;;;;;;;;3.00;88.83;99310.56;5032609;28;19913;-67
2023/03/11 03:20:55;;;;;;;;;;;;;;;2.93;88.04;99318.56;5032085;28;19921;-67
2023/03/11 03:23:21;;;;;;;;;;;;;;;2.87;89.06;99313.41;5032813;28;19917;-66
2023/03/11 03:25:46;;;;;;;;;;;;;;;2.84;88.88;99321.31;5046218;28;20711;-67
2023/03/11 03:28:12;;;;;;;;;;;;;;;2.79;89.13;99321.38;5031867;28;19921;-67
2023/03/11 03:30:37;;;;;;;;;;;;;;;2.73;89.12;99317.06;5015189;28;19928;-67
2023/03/11 03:33:03;;;;;;;;;;;;;;;2.70;89.47;99326.75;5032669;28;19979;-67
2023/03/11 03:35:28;;;;;;;;;;;;;;;2.69;90.34;99341.63;5031257;28;20016;-67
2023/03/11 03:37:54;;;;;;;;;;;;;;;2.69;89.92;99352.13;5032445;28;19921;-67
2023/03/11 03:40:19;;;;;;;;;;;;;;;2.63;89.09;99357.47;5032573;28;19923;-67
2023/03/11 03:42:44;;;;;;;;;;;;;;;2.60;89.89;99351.38;5032032;28;19963;-67
2023/03/11 03:45:10;;;;;;;;;;;;;;;2.59;89.62;99360.13;5009596;28;19921;-66
2023/03/11 03:47:36;;;;;;;;;;;;;;;2.51;89.97;99360.22;5016348;28;20332;-66
2023/03/11 03:50:02;;;;;;;;;;;;;;;2.43;90.50;99364.69;5031715;28;19924;-66
2023/03/11 03:52:27;;;;;;;;;;;;;;;2.34;91.31;99358.66;5031996;28;20737;-66
2023/03/11 03:54:52;;;;;;;;;;;;;;;2.26;92.52;99360.47;5030906;28;20065;-67
2023/03/11 03:57:17;;;;;;;;;;;;;;;2.20;93.52;99361.44;5031725;28;20414;-67
2023/03/11 03:59:43;;;;;;;;;;;;;;;2.14;93.14;99366.72;5030358;28;20030;-67
2023/03/11 04:02:08;;;;;;;;;;;;;;;2.10;94.16;99365.03;5031630;28;19925;-67
2023/03/11 04:04:33;;;;;;;;;;;;;;;2.08;94.52;99365.91;5031062;28;19917;-66
2023/03/11 04:06:59;;;;;;;;;;;;;;;2.06;94.46;99363.28;5030580;28;20777;-67
2023/03/11 04:09:24;;;;;;;;;;;;;;;2.08;94.87;99361.53;5031390;28;19928;-67
2023/03/11 04:11:50;;;;;;;;;;;;;;;2.10;95.40;99359.78;5030846;28;19925;-67
2023/03/11 04:14:15;;;;;;;;;;;;;;;2.09;95.73;99367.66;5031883;28;19917;-67
2023/03/11 04:16:41;;;;;;;;;;;;;;;2.06;95.15;99365.91;5031088;28;19917;-67
2023/03/11 04:19:06;;;;;;;;;;;;;;;2.06;96.03;99357.19;5031706;28;19980;-67
2023/03/11 04:21:32;;;;;;;;;;;;;;;2.09;95.80;99352.78;5012552;28;19975;-67
2023/03/11 04:23:57;;;;;;;;;;;;;;;2.15;96.14;99347.47;5030787;28;19921;-66
2023/03/11 04:26:22;;;;;;;;;;;;;;;2.15;95.29;99352.72;5031632;28;19922;-67
2023/03/11 04:28:48;;;;;;;;;;;;;;;2.12;94.90;99363.25;5030960;28;19948;-67
2023/03/11 04:31:13;;;;;;;;;;;;;;;2.09;95.70;99365.03;5031497;28;20284;-67
2023/03/11 04:33:38;;;;;;;;;;;;;;;2.00;94.90;99368.59;5016124;28;19933;-68
2023/03/11 04:36:05;;;;;;;;;;;;;;;1.94;96.24;99368.66;5026876;28;19925;-67
2023/03/11 04:38:30;;;;;;;;;;;;;;;1.92;96.41;99362.56;5019796;28;20290;-67
2023/03/11 04:40:59;;;;;;;;;;;;;;;1.92;95.65;99375.66;4998051;28;20051;-67
2023/03/11 04:43:24;;;;;;;;;;;;;;;1.89;95.81;99391.44;5031356;28;19917;-67
2023/03/11 04:45:50;;;;;;;;;;;;;;;1.86;96.07;99380.94;5031193;28;19917;-66
2023/03/11 04:48:15;;;;;;;;;;;;;;;1.80;96.86;99377.50;5029974;28;19921;-66
2023/03/11 04:50:40;;;;;;;;;;;;;;;1.78;97.27;99381.91;5030799;28;19952;-67
2023/03/11 04:53:05;;;;;;;;;;;;;;;1.77;97.94;99377.53;5030985;28;20004;-67
2023/03/11 04:55:32;;;;;;;;;;;;;;;1.80;97.40;99381.00;5030104;28;19925;-66
2023/03/11 04:57:57;;;;;;;;;;;;;;;1.83;97.48;99390.63;5027552;28;19917;-67
2023/03/11 05:00:23;;;;;;;;;;;;;;;1.81;96.95;99384.50;5029217;28;19913;-66
2023/03/11 05:02:49;;;;;;;;;;;;;;;1.77;96.84;99390.63;5014758;28;19971;-67
2023/03/11 05:05:15;;;;;;;;;;;;;;;1.75;97.39;99388.03;5029310;28;19917;-66
2023/03/11 05:07:40;;;;;;;;;;;;;;;1.74;96.60;99388.03;5030016;28;20280;-66
2023/03/11 05:10:06;;;;;;;;;;;;;;;1.77;98.03;99382.78;5029542;28;19925;-66
2023/03/11 05:12:31;;;;;;;;;;;;;;;1.74;98.30;99383.69;5028631;28;19921;-66
2023/03/11 05:14:56;;;;;;;;;;;;;;;1.70;97.82;99378.50;5030513;28;19947;-66
2023/03/11 05:17:23;;;;;;;;;;;;;;;1.65;98.09;99375.88;5029982;28;19964;-66
2023/03/11 05:19:49;;;;;;;;;;;;;;;1.61;99.00;99379.41;5030538;28;20007;-66
2023/03/11 05:22:14;;;;;;;;;;;;;;;1.60;99.44;99388.13;5030438;28;19921;-66
2023/03/11 05:24:39;;;;;;;;;;;;;;;1.64;99.50;99379.41;5030353;28;19913;-66
2023/03/11 05:27:05;;;;;;;;;;;;;;;1.60;99.41;99382.91;5029859;28;19958;-66
2023/03/11 05:29:30;;;;;;;;;;;;;;;1.65;99.85;99390.75;5012791;28;19967;-66
2023/03/11 05:31:55;;;;;;;;;;;;;;;1.67;99.92;99389.84;5029704;28;19951;-66
2023/03/11 05:34:21;;;;;;;;;;;;;;;1.65;100.00;99396.84;5028365;28;20031;-66
2023/03/11 05:36:47;;;;;;;;;;;;;;;1.65;100.00;99393.38;5029051;28;19913;-66
2023/03/11 05:39:12;;;;;;;;;;;;;;;1.73;100.00;99402.91;5028967;28;20004;-66
2023/03/11 05:41:38;;;;;;;;;;;;;;;1.39;99.83;99346.38;5029439;28;19923;-66
2023/03/11 05:44:03;;;;;;;;;;;;;;;1.76;100.00;99405.53;5029666;28;19916;-66
2023/03/11 05:46:28;;;;;;;;;;;;;;;1.74;100.00;99401.16;5029238;28;20313;-66
2023/03/11 05:48:54;;;;;;;;;;;;;;;1.71;100.00;99396.81;5030308;28;19956;-66
2023/03/11 05:51:19;;;;;;;;;;;;;;;1.72;100.00;99397.66;5030059;28;19917;-66
2023/03/11 05:53:47;;;;;;;;;;;;;;;1.66;100.00;99398.59;5028969;28;19971;-66
2023/03/11 05:56:12;;;;;;;;;;;;;;;1.58;100.00;99400.41;5028887;28;20351;-66
2023/03/11 05:58:38;;;;;;;;;;;;;;;1.57;100.00;99392.53;5027631;28;19917;-66
2023/03/11 06:01:06;;;;;;;;;;;;;;;1.56;100.00;99390.81;5028303;28;19967;-66
2023/03/11 06:03:31;;;;;;;;;;;;;;;1.61;100.00;99391.66;5011981;28;19913;-66
2023/03/11 06:05:57;;;;;;;;;;;;;;;1.70;100.00;99381.97;5028758;28;19928;-66
2023/03/11 06:08:22;;;;;;;;;;;;;;;1.78;100.00;99382.75;5029808;28;19964;-66
2023/03/11 06:10:48;;;;;;;;;;;;;;;1.85;100.00;99381.84;5029821;28;19969;-66
2023/03/11 06:13:13;;;;;;;;;;;;;;;2.03;100.00;99394.78;5028198;28;19921;-66
2023/03/11 06:15:38;;;;;;;;;;;;;;;2.28;100.00;99396.31;5029513;28;19921;-66
2023/03/11 06:18:04;;;;;;;;;;;;;;;2.65;100.00;99402.06;5028407;28;19921;-66
2023/03/11 06:20:29;;;;;;;;;;;;;;;2.97;100.00;99399.94;5029751;28;20000;-66
2023/03/11 06:22:55;;;;;;;;;;;;;;;3.58;100.00;99408.75;5029660;28;19970;-66
2023/03/11 06:25:20;;;;;;;;;;;;;;;4.16;100.00;99419.22;5028734;28;19921;-66
2023/03/11 06:27:50;;;;;;;;;;;;;;;4.42;96.26;99411.75;5029758;28;19917;-66
2023/03/11 06:30:16;;;;;;;;;;;;;;;5.25;94.05;99415.41;5011032;28;19921;-67
2023/03/11 06:32:44;;;;;;;;;;;;;;;5.57;85.01;99423.47;5029236;28;19921;-66
2023/03/11 06:35:10;;;;;;;;;;;;;;;5.22;81.45;99415.47;5028843;28;19929;-66
2023/03/11 06:37:36;;;;;;;;;;;;;;;4.76;80.95;99418.13;5028367;28;19945;-66
2023/03/11 06:40:01;;;;;;;;;;;;;;;4.23;82.07;99431.41;5029356;28;19940;-66
2023/03/11 06:42:27;;;;;;;;;;;;;;;3.96;84.03;99434.47;5005603;28;20491;-66
2023/03/11 06:44:52;;;;;;;;;;;;;;;3.68;86.15;99448.91;5023333;28;19921;-66
2023/03/11 06:47:17;;;;;;;;;;;;;;;3.60;87.38;99445.53;5028831;28;19917;-66
2023/03/11 06:49:43;;;;;;;;;;;;;;;3.54;89.15;99456.13;5028868;28;20396;-67
2023/03/11 06:52:08;;;;;;;;;;;;;;;3.74;89.95;99464.63;5029205;28;19941;-66
2023/03/11 06:54:33;;;;;;;;;;;;;;;3.94;89.82;99463.44;5028660;28;19924;-66
2023/03/11 06:56:59;;;;;;;;;;;;;;;5.00;92.91;99449.28;5025300;28;19925;-67
2023/03/11 06:59:24;;;;;;;;;;;;;;;5.99;82.46;99463.91;5029530;28;19964;-66
2023/03/11 07:01:49;;;;;;;;;;;;;;;6.05;79.29;99455.81;5028300;28;19917;-67
2023/03/11 07:04:15;;;;;;;;;;;;;;;6.31;78.32;99464.03;5029504;28;19913;-66
2023/03/11 07:06:40;;;;;;;;;;;;;;;7.09;78.57;99469.88;5029459;28;19924;-66
2023/03/11 07:09:06;;;;;;;;;;;;;;;8.54;73.15;99473.41;5025672;28;20395;-66
2023/03/11 07:11:31;;;;;;;;;;;;;;;10.62;62.24;99458.47;5009468;28;19925;-66
2023/03/11 07:13:56;;;;;;;;;;;;;;;11.84;54.89;99467.19;5015562;28;19925;-67
2023/03/11 07:16:23;;;;;;;;;;;;;;;13.07;51.28;99470.91;5017681;28;19955;-67
2023/03/11 07:18:49;;;;;;;;;;;;;;;14.08;46.32;99469.91;5009601;28;19910;-66
2023/03/11 07:21:16;;;;;;;;;;;;;;;15.09;44.13;99464.91;5026028;28;19921;-66
2023/03/11 07:23:41;;;;;;;;;;;;;;;16.20;41.98;99472.28;5030081;28;19917;-66
2023/03/11 07:26:07;;;;;;;;;;;;;;;16.81;39.56;99476.31;5030710;28;19967;-66
2023/03/11 07:28:33;;;;;;;;;;;;;;;17.10;37.83;99477.00;5031011;28;19995;-66
2023/03/11 07:30:58;;;;;;;;;;;;;;;17.60;37.27;99476.28;5016873;28;20365;-66
2023/03/11 07:33:23;;;;;;;;;;;;;;;18.08;36.32;99476.38;5028939;28;19921;-66
2023/03/11 07:35:49;;;;;;;;;;;;;;;18.09;36.05;99479.91;5029867;28;19953;-67
2023/03/11 07:38:16;;;;;;;;;;;;;;;18.30;35.13;99495.38;5029848;28;19928;-66
2023/03/11 07:40:41;;;;;;;;;;;;;;;18.58;34.82;99494.28;5031275;28;19913;-66
2023/03/11 07:43:06;;;;;;;;;;;;;;;18.61;33.78;99503.97;5030518;28;19924;-66
2023/03/11 07:45:32;;;;;;;;;;;;;;;18.05;33.82;99506.22;5030888;28;19917;-66
2023/03/11 07:47:57;;;;;;;;;;;;;;;18.55;34.24;99501.72;5031148;28;19967;-66
2023/03/11 07:50:22;;;;;;;;;;;;;;;19.05;33.69;99512.28;5029480;28;19921;-66
2023/03/11 07:52:48;;;;;;;;;;;;;;;19.15;32.41;99508.81;5011906;28;19918;-66
2023/03/11 07:55:13;;;;;;;;;;;;;;;18.57;31.86;99514.09;5011870;28;20384;-66
2023/03/11 07:57:38;;;;;;;;;;;;;;;18.57;31.49;99524.00;5032000;28;19924;-66
2023/03/11 08:00:04;;;;;;;;;;;;;;;18.85;31.81;99523.69;5031746;28;20007;-66
2023/03/11 08:02:29;;;;;;;;;;;;;;;19.06;32.04;99533.75;5022980;28;19932;-65
2023/03/11 08:04:54;;;;;;;;;;;;;;;17.64;32.49;99534.28;5031440;28;20007;-65
2023/03/11 08:07:20;;;;;;;;;;;;;;;15.68;35.80;99536.41;5013589;28;19917;-65
2023/03/11 08:09:45;;;;;;;;;;;;;;;14.31;38.67;99533.75;5030821;28;19913;-66
2023/03/11 08:12:10;;;;;;;;;;;;;;;15.13;37.42;99524.53;5031264;28;19963;-66
2023/03/11 08:14:37;;;;;;;;;;;;;;;16.10;36.78;99525.69;5029602;28;19921;-65
2023/03/11 08:17:03;;;;;;;;;;;;;;;16.59;36.30;99518.94;5024588;28;19917;-66
2023/03/11 08:19:28;;;;;;;;;;;;;;;17.03;35.70;99521.41;5011526;28;19917;-66
2023/03/11 08:21:53;;;;;;;;;;;;;;;17.20;34.69;99515.75;5012157;28;19995;-66
2023/03/11 08:24:18;;;;;;;;;;;;;;;17.48;34.87;99515.63;5026724;28;20596;-66
2023/03/11 08:26:44;;;;;;;;;;;;;;;17.52;34.69;99519.84;5031695;28;19921;-66
2023/03/11 08:29:09;;;;;;;;;;;;;;;17.57;34.04;99523.09;5031443;28;20357;-66
2023/03/11 08:31:34;;;;;;;;;;;;;;;17.16;33.82;99514.25;5031277;28;19921;-66
2023/03/11 08:34:01;;;;;;;;;;;;;;;16.80;33.55;99519.38;5021433;28;19921;-66
2023/03/11 08:36:26;;;;;;;;;;;;;;;16.53;34.03;99518.47;5027697;28;20015;-66
2023/03/11 08:38:52;;;;;;;;;;;;;;;16.01;33.95;99520.91;5031751;28;20012;-66
2023/03/11 08:41:17;;;;;;;;;;;;;;;16.31;33.75;99529.69;5030378;28;19979;-66
2023/03/11 08:43:43;;;;;;;;;;;;;;;16.55;34.42;99527.31;5031616;28;19927;-66
2023/03/11 08:46:12;;;;;;;;;;;;;;;16.60;34.28;99535.91;5023374;28;20290;-66
2023/03/11 08:48:37;;;;;;;;;;;;;;;16.30;33.49;99543.22;5010375;28;19921;-65
2023/03/11 08:51:10;;;;;;;;;;;;;;;15.38;33.38;99538.19;5022591;28;19995;-65
2023/03/11 08:53:36;;;;;;;;;;;;;;;14.47;34.34;99542.63;5010400;28;19922;-65
2023/03/11 08:56:02;;;;;;;;;;;;;;;14.39;36.26;99536.84;5010394;28;19913;-65
2023/03/11 08:58:28;;;;;;;;;;;;;;;14.75;35.15;99545.50;5028059;28;19928;-65
2023/03/11 09:00:53;;;;;;;;;;;;;;;15.33;37.38;99549.19;5026326;28;19971;-65
2023/03/11 09:03:18;;;;;;;;;;;;;;;15.44;34.86;99546.75;5031037;28;19917;-65
2023/03/11 09:05:43;;;;;;;;;;;;;;;15.50;35.16;99545.56;5030935;28;20392;-65
2023/03/11 09:08:09;;;;;;;;;;;;;;;15.66;36.10;99546.34;5030061;28;19971;-65
2023/03/11 09:10:34;;;;;;;;;;;;;;;15.71;35.72;99553.16;5029077;28;20000;-65
2023/03/11 09:12:59;;;;;;;;;;;;;;;15.71;36.05;99546.94;5030299;28;19926;-65
2023/03/11 09:15:25;;;;;;;;;;;;;;;15.99;35.05;99551.47;5024181;28;20600;-65
2023/03/11 09:17:50;;;;;;;;;;;;;;;16.04;36.41;99546.66;5023529;28;19924;-65
2023/03/11 09:20:15;;;;;;;;;;;;;;;16.23;34.46;99547.22;5030076;28;19921;-65
2023/03/11 09:22:41;;;;;;;;;;;;;;;16.22;35.31;99551.75;5028967;28;20448;-65
2023/03/11 09:25:06;;;;;;;;;;;;;;;16.36;35.60;99553.59;5029517;28;19920;-65
2023/03/11 09:27:32;;;;;;;;;;;;;;;16.06;33.17;99556.38;5029816;28;20295;-65
2023/03/11 09:29:57;;;;;;;;;;;;;;;15.67;35.06;99554.28;5030466;28;19920;-65
2023/03/11 09:32:22;;;;;;;;;;;;;;;16.34;34.47;99561.69;5029503;28;19917;-64
2023/03/11 09:34:48;;;;;;;;;;;;;;;16.04;31.89;99554.72;5030458;28;20028;-65
2023/03/11 09:37:13;;;;;;;;;;;;;;;16.01;32.85;99558.47;5029430;28;20419;-64
2023/03/11 09:39:38;;;;;;;;;;;;;;;15.85;32.72;99551.47;5030246;28;19930;-64
2023/03/11 09:42:15;;;;;;;;;;;;;;;15.67;32.15;99553.41;5029791;28;19913;-64
2023/03/11 09:44:41;;;;;;;;;;;;;;;15.77;31.22;99552.78;5028485;28;20331;-65
2023/03/11 09:47:38;;;;;;;;;;;;;;;15.08;32.96;99556.94;5028768;28;20000;-64
2023/03/11 09:50:13;;;;;;;;;;;;;;;13.84;34.76;99560.34;4983732;28;19921;-64
2023/03/11 09:52:43;;;;;;;;;;;;;;;12.83;35.78;99568.19;5027688;28;19959;-64
2023/03/11 09:55:20;;;;;;;;;;;;;;;12.20;37.76;99573.06;5026657;28;19935;-63
2023/03/11 09:57:46;;;;;;;;;;;;;;;11.53;37.90;99573.38;5028519;28;19913;-64
2023/03/11 10:00:14;;;;;;;;;;;;;;;11.00;40.73;99572.13;5027676;28;19950;-64
2023/03/11 10:02:40;;;;;;;;;;;;;;;10.31;41.05;99574.97;5028849;28;19921;-64
2023/03/11 10:05:08;;;;;;;;;;;;;;;10.81;41.49;99567.66;5027578;28;19926;-64
2023/03/11 10:07:40;;;;;;;;;;;;;;;12.07;40.79;99559.44;5028906;28;20004;-64
2023/03/11 10:10:10;;;;;;;;;;;;;;;13.20;39.40;99557.47;5028777;28;20451;-63
2023/03/11 10:12:35;;;;;;;;;;;;;;;14.39;34.57;99550.22;5028956;28;19913;-63
2023/03/11 10:15:04;;;;;;;;;;;;;;;15.00;32.72;99545.81;5028556;28;19982;-63
2023/03/11 10:17:35;;;;;;;;;;;;;;;15.93;33.63;99551.84;5027788;28;19945;-63
2023/03/11 10:20:11;;;;;;;;;;;;;;;16.65;32.83;99549.91;5029694;28;20003;-64
2023/03/11 10:22:57;;;;;;;;;;;;;;;16.96;30.53;99545.13;5029655;28;20399;-63
2023/03/11 10:25:29;;;;;;;;;;;;;;;16.99;31.45;99544.06;5028275;28;20364;-64
2023/03/11 10:27:58;;;;;;;;;;;;;;;16.41;31.68;99536.19;5029461;28;20343;-63
2023/03/11 10:30:36;;;;;;;;;;;;;;;16.50;33.37;99542.84;5029678;28;19924;-63
2023/03/11 10:33:13;;;;;;;;;;;;;;;16.97;31.78;99545.97;5026512;28;20015;-63
2023/03/11 10:35:40;;;;;;;;;;;;;;;17.42;30.93;99547.41;5028009;28;19932;-63
2023/03/11 10:38:19;;;;;;;;;;;;;;;17.22;32.68;99546.06;5029780;28;19919;-63
2023/03/11 10:40:46;;;;;;;;;;;;;;;16.33;32.30;99548.38;5028734;28;19960;-64
2023/03/11 10:43:17;;;;;;;;;;;;;;;15.73;34.71;99551.22;5029041;28;19920;-63
2023/03/11 10:45:45;;;;;;;;;;;;;;;15.22;33.00;99551.63;5027950;28;19921;-63
2023/03/11 10:48:14;;;;;;;;;;;;;;;14.69;36.21;99551.19;5027868;28;19928;-63
2023/03/11 10:50:44;;;;;;;;;;;;;;;14.29;35.57;99557.03;5010986;28;19945;-62
2023/03/11 10:53:14;;;;;;;;;;;;;;;14.72;33.90;99555.50;4992024;28;20680;-63
2023/03/11 10:55:49;;;;;;;;;;;;;;;15.47;36.49;99549.25;5022232;28;20020;-63
2023/03/11 10:58:25;;;;;;;;;;;;;;;16.24;32.85;99551.66;5029530;28;19936;-63
2023/03/11 11:01:02;;;;;;;;;;;;;;;17.36;33.67;99550.53;5032116;28;19978;-63
2023/03/11 11:03:28;;;;;;;;;;;;;;;17.35;30.58;99544.28;5032514;28;20012;-63
2023/03/11 11:05:58;;;;;;;;;;;;;;;17.78;31.72;99540.41;5032326;28;20672;-62
2023/03/11 11:08:23;;;;;;;;;;;;;;;17.46;33.63;99544.44;5031741;28;20392;-62
2023/03/11 11:10:50;;;;;;;;;;;;;;;17.67;30.60;99543.00;5010195;28;19983;-62
2023/03/11 11:13:17;;;;;;;;;;;;;;;17.96;30.83;99539.13;5011421;28;20618;-63
2023/03/11 11:15:59;;;;;;;;;;;;;;;17.77;31.03;99527.06;4995419;28;19921;-64
2023/03/11 11:18:45;;;;;;;;;;;;;;;17.67;31.26;99526.84;5010329;28;20476;-63
2023/03/11 11:21:13;;;;;;;;;;;;;;;16.80;32.63;99535.50;5013202;28;19920;-62
2023/03/11 11:23:49;;;;;;;;;;;;;;;16.45;32.65;99539.56;5012548;28;19928;-63
2023/03/11 11:26:16;;;;;;;;;;;;;;;16.83;32.57;99541.53;5013009;28;20022;-62
2023/03/11 11:28:41;;;;;;;;;;;;;;;16.88;32.85;99542.09;5013276;28;19917;-63
2023/03/11 11:31:19;;;;;;;;;;;;;;;17.37;32.85;99534.28;5012600;28;19917;-62
2023/03/11 11:33:54;;;;;;;;;;;;;;;17.88;31.27;99525.34;5010437;28;19936;-63
2023/03/11 11:36:23;;;;;;;;;;;;;;;18.29;30.01;99523.28;5012601;28;19922;-62
2023/03/11 11:38:50;;;;;;;;;;;;;;;18.27;29.99;99522.53;5011912;28;20396;-62
2023/03/11 11:41:17;;;;;;;;;;;;;;;17.75;32.25;99532.56;5012589;28;20382;-62
2023/03/11 11:43:50;;;;;;;;;;;;;;;16.69;28.23;99535.31;5012637;28;20436;-63
2023/03/11 11:46:37;;;;;;;;;;;;;;;16.28;29.62;99529.88;5012943;28;19917;-62
2023/03/11 11:49:21;;;;;;;;;;;;;;;16.62;32.01;99531.31;5011353;28;19988;-62
2023/03/11 11:51:49;;;;;;;;;;;;;;;16.92;28.29;99521.22;5011453;28;20316;-62
2023/03/11 11:54:24;;;;;;;;;;;;;;;16.93;30.99;99514.91;5010533;28;20022;-62
2023/03/11 11:56:49;;;;;;;;;;;;;;;16.84;29.29;99518.19;5011776;28;20353;-64
2023/03/11 11:59:17;;;;;;;;;;;;;;;17.30;32.52;99516.84;5011147;28;19917;-61
2023/03/11 12:02:02;;;;;;;;;;;;;;;18.06;30.34;99505.22;5011188;28;20316;-62
2023/03/11 12:04:37;;;;;;;;;;;;;;;18.75;29.35;99517.25;5010215;28;19917;-61
2023/03/11 12:07:21;;;;;;;;;;;;;;;18.36;28.76;99510.25;5012657;28;19918;-60
2023/03/11 12:09:58;;;;;;;;;;;;;;;17.81;29.46;99505.22;5012667;28;20345;-62
2023/03/11 12:12:28;;;;;;;;;;;;;;;17.38;31.60;99509.13;5030806;28;20104;-62
2023/03/11 12:15:12;;;;;;;;;;;;;;;17.10;29.78;99503.88;5030756;28;19932;-61
2023/03/11 12:17:39;;;;;;;;;;;;;;;17.56;33.10;99497.13;5014352;28;19920;-64
2023/03/11 12:20:13;;;;;;;;;;;;;;;17.30;29.33;99498.03;5019026;28;19913;-64
2023/03/11 12:22:39;;;;;;;;;;;;;;;16.91;30.20;99495.34;5021689;28;19921;-64
2023/03/11 12:25:21;;;;;;;;;;;;;;;16.06;28.61;99501.84;5025504;28;19932;-64
2023/03/11 12:28:08;;;;;;;;;;;;;;;15.90;31.80;99512.66;5027683;28;19994;-64
2023/03/11 12:30:37;;;;;;;;;;;;;;;15.79;33.61;99504.41;5030459;28;19924;-64
2023/03/11 12:33:12;;;;;;;;;;;;;;;16.02;32.98;99506.53;5025561;28;19918;-64
2023/03/11 12:35:37;;;;;;;;;;;;;;;16.38;32.44;99504.19;5008039;28;20011;-64
2023/03/11 12:38:12;;;;;;;;;;;;;;;16.92;32.88;99494.38;5027421;28;20589;-64
2023/03/11 12:40:43;;;;;;;;;;;;;;;17.08;31.35;99495.09;5017521;28;20533;-64
2023/03/11 12:43:41;;;;;;;;;;;;;;;17.81;31.73;99491.78;5009794;28;19917;-64
2023/03/11 12:46:07;;;;;;;;;;;;;;;17.33;30.60;99495.13;4974853;28;19921;-64
2023/03/11 12:48:41;;;;;;;;;;;;;;;17.39;30.04;99496.53;5027550;28;19924;-65
2023/03/11 12:51:26;;;;;;;;;;;;;;;17.69;28.96;99494.47;5017641;28;19922;-64
2023/03/11 12:53:55;;;;;;;;;;;;;;;17.25;26.66;99497.47;5018214;28;19925;-64